sensor_id;sensor_type;location;lat;lon;timestamp;P1;durP1;ratioP1;P2;durP2;ratioP2
73776;SDS011;62088;50.240;2.696;2023-06-19T00:01:13;7.22;;;5.40;;
73776;SDS011;62088;50.240;2.696;2023-06-19T00:03:40;9.45;;;5.60;;
73776;SDS011;62088;50.240;2.696;2023-06-19T00:06:08;8.10;;;5.53;;
73776;SDS011;62088;50.240;2.696;2023-06-19T00:08:35;8.95;;;4.45;;
73776;SDS011;62088;50.240;2.696;2023-06-19T00:11:02;6.75;;;4.22;;
73776;SDS011;62088;50.240;2.696;2023-06-19T00:13:30;5.68;;;3.70;;
73776;SDS011;62088;50.240;2.696;2023-06-19T00:15:57;6.90;;;4.65;;
73776;SDS011;62088;50.240;2.696;2023-06-19T00:18:27;6.68;;;4.18;;
73776;SDS011;62088;50.240;2.696;2023-06-19T00:20:54;6.53;;;4.63;;
73776;SDS011;62088;50.240;2.696;2023-06-19T00:23:23;8.25;;;5.20;;
73776;SDS011;62088;50.240;2.696;2023-06-19T00:25:50;8.23;;;5.40;;
73776;SDS011;62088;50.240;2.696;2023-06-19T00:28:17;9.70;;;5.90;;
73776;SDS011;62088;50.240;2.696;2023-06-19T00:30:46;9.52;;;7.57;;
73776;SDS011;62088;50.240;2.696;2023-06-19T00:33:13;12.68;;;7.97;;
73776;SDS011;62088;50.240;2.696;2023-06-19T00:35:40;14.15;;;10.55;;
73776;SDS011;62088;50.240;2.696;2023-06-19T00:38:09;16.63;;;12.35;;
73776;SDS011;62088;50.240;2.696;2023-06-19T00:40:36;22.38;;;16.13;;
73776;SDS011;62088;50.240;2.696;2023-06-19T00:43:03;21.63;;;17.40;;
73776;SDS011;62088;50.240;2.696;2023-06-19T00:45:30;25.10;;;19.52;;
73776;SDS011;62088;50.240;2.696;2023-06-19T00:47:58;21.30;;;17.00;;
73776;SDS011;62088;50.240;2.696;2023-06-19T00:50:30;21.42;;;16.27;;
73776;SDS011;62088;50.240;2.696;2023-06-19T00:52:58;20.85;;;16.90;;
73776;SDS011;62088;50.240;2.696;2023-06-19T00:55:28;19.88;;;15.57;;
73776;SDS011;62088;50.240;2.696;2023-06-19T00:57:59;19.73;;;14.60;;
73776;SDS011;62088;50.240;2.696;2023-06-19T01:00:27;20.38;;;17.17;;
73776;SDS011;62088;50.240;2.696;2023-06-19T01:02:56;20.67;;;16.00;;
73776;SDS011;62088;50.240;2.696;2023-06-19T01:05:23;16.05;;;12.73;;
73776;SDS011;62088;50.240;2.696;2023-06-19T01:08:03;18.88;;;14.35;;
73776;SDS011;62088;50.240;2.696;2023-06-19T01:10:33;17.67;;;12.80;;
73776;SDS011;62088;50.240;2.696;2023-06-19T01:13:10;11.95;;;10.07;;
73776;SDS011;62088;50.240;2.696;2023-06-19T01:15:43;13.00;;;10.30;;
73776;SDS011;62088;50.240;2.696;2023-06-19T01:18:10;12.68;;;8.80;;
73776;SDS011;62088;50.240;2.696;2023-06-19T01:20:38;13.15;;;9.10;;
73776;SDS011;62088;50.240;2.696;2023-06-19T01:23:07;13.02;;;8.98;;
73776;SDS011;62088;50.240;2.696;2023-06-19T01:25:35;10.98;;;8.63;;
73776;SDS011;62088;50.240;2.696;2023-06-19T01:28:02;11.43;;;8.60;;
73776;SDS011;62088;50.240;2.696;2023-06-19T01:30:32;12.35;;;9.20;;
73776;SDS011;62088;50.240;2.696;2023-06-19T01:33:09;13.52;;;8.73;;
73776;SDS011;62088;50.240;2.696;2023-06-19T01:35:47;10.20;;;8.38;;
73776;SDS011;62088;50.240;2.696;2023-06-19T01:38:16;12.20;;;9.18;;
73776;SDS011;62088;50.240;2.696;2023-06-19T01:40:44;11.10;;;8.40;;
73776;SDS011;62088;50.240;2.696;2023-06-19T01:43:12;10.50;;;8.93;;
73776;SDS011;62088;50.240;2.696;2023-06-19T01:45:39;12.68;;;8.70;;
73776;SDS011;62088;50.240;2.696;2023-06-19T01:48:07;13.60;;;9.10;;
73776;SDS011;62088;50.240;2.696;2023-06-19T01:50:37;13.95;;;9.35;;
73776;SDS011;62088;50.240;2.696;2023-06-19T01:53:04;11.82;;;8.75;;
73776;SDS011;62088;50.240;2.696;2023-06-19T01:55:31;11.27;;;8.05;;
73776;SDS011;62088;50.240;2.696;2023-06-19T01:57:58;10.75;;;8.23;;
73776;SDS011;62088;50.240;2.696;2023-06-19T02:00:25;10.20;;;8.65;;
73776;SDS011;62088;50.240;2.696;2023-06-19T02:02:56;10.80;;;8.50;;
73776;SDS011;62088;50.240;2.696;2023-06-19T02:05:24;9.40;;;7.88;;
73776;SDS011;62088;50.240;2.696;2023-06-19T02:07:52;9.32;;;8.10;;
73776;SDS011;62088;50.240;2.696;2023-06-19T02:10:19;9.13;;;8.20;;
73776;SDS011;62088;50.240;2.696;2023-06-19T02:12:47;14.50;;;8.60;;
73776;SDS011;62088;50.240;2.696;2023-06-19T02:15:14;11.65;;;7.07;;
73776;SDS011;62088;50.240;2.696;2023-06-19T02:17:41;10.00;;;7.47;;
73776;SDS011;62088;50.240;2.696;2023-06-19T02:20:09;11.50;;;7.93;;
73776;SDS011;62088;50.240;2.696;2023-06-19T02:22:38;9.73;;;7.75;;
73776;SDS011;62088;50.240;2.696;2023-06-19T02:25:05;12.27;;;7.43;;
73776;SDS011;62088;50.240;2.696;2023-06-19T02:27:34;10.48;;;8.00;;
73776;SDS011;62088;50.240;2.696;2023-06-19T02:30:01;10.43;;;8.27;;
73776;SDS011;62088;50.240;2.696;2023-06-19T02:32:29;11.95;;;7.55;;
73776;SDS011;62088;50.240;2.696;2023-06-19T02:34:57;11.80;;;7.20;;
73776;SDS011;62088;50.240;2.696;2023-06-19T02:37:24;10.88;;;8.32;;
73776;SDS011;62088;50.240;2.696;2023-06-19T02:39:51;14.15;;;7.55;;
73776;SDS011;62088;50.240;2.696;2023-06-19T02:42:18;14.90;;;8.88;;
73776;SDS011;62088;50.240;2.696;2023-06-19T02:44:45;13.27;;;8.55;;
73776;SDS011;62088;50.240;2.696;2023-06-19T02:47:12;11.43;;;9.48;;
73776;SDS011;62088;50.240;2.696;2023-06-19T02:49:39;10.77;;;9.05;;
73776;SDS011;62088;50.240;2.696;2023-06-19T02:52:07;10.68;;;9.10;;
73776;SDS011;62088;50.240;2.696;2023-06-19T02:54:34;15.02;;;9.60;;
73776;SDS011;62088;50.240;2.696;2023-06-19T02:57:01;14.85;;;9.13;;
73776;SDS011;62088;50.240;2.696;2023-06-19T02:59:28;14.25;;;9.73;;
73776;SDS011;62088;50.240;2.696;2023-06-19T03:01:55;13.18;;;9.48;;
73776;SDS011;62088;50.240;2.696;2023-06-19T03:04:22;11.75;;;8.40;;
73776;SDS011;62088;50.240;2.696;2023-06-19T03:06:53;11.63;;;9.10;;
73776;SDS011;62088;50.240;2.696;2023-06-19T03:09:20;12.50;;;9.30;;
73776;SDS011;62088;50.240;2.696;2023-06-19T03:11:48;13.50;;;10.10;;
73776;SDS011;62088;50.240;2.696;2023-06-19T03:14:14;13.10;;;10.18;;
73776;SDS011;62088;50.240;2.696;2023-06-19T03:16:42;13.98;;;10.82;;
73776;SDS011;62088;50.240;2.696;2023-06-19T03:19:09;11.70;;;9.35;;
73776;SDS011;62088;50.240;2.696;2023-06-19T03:21:36;13.27;;;10.88;;
73776;SDS011;62088;50.240;2.696;2023-06-19T03:24:03;14.32;;;9.45;;
73776;SDS011;62088;50.240;2.696;2023-06-19T03:26:32;18.67;;;11.10;;
73776;SDS011;62088;50.240;2.696;2023-06-19T03:29:01;13.43;;;9.70;;
73776;SDS011;62088;50.240;2.696;2023-06-19T03:31:39;16.60;;;10.40;;
73776;SDS011;62088;50.240;2.696;2023-06-19T03:34:07;12.10;;;10.38;;
73776;SDS011;62088;50.240;2.696;2023-06-19T03:36:35;14.00;;;10.10;;
73776;SDS011;62088;50.240;2.696;2023-06-19T03:39:06;12.27;;;9.90;;
73776;SDS011;62088;50.240;2.696;2023-06-19T03:41:35;9.13;;;6.43;;
73776;SDS011;62088;50.240;2.696;2023-06-19T03:44:02;13.07;;;8.88;;
73776;SDS011;62088;50.240;2.696;2023-06-19T03:46:30;13.07;;;8.63;;
73776;SDS011;62088;50.240;2.696;2023-06-19T03:48:57;13.52;;;9.57;;
73776;SDS011;62088;50.240;2.696;2023-06-19T03:51:27;11.00;;;8.68;;
73776;SDS011;62088;50.240;2.696;2023-06-19T03:53:55;16.48;;;9.85;;
73776;SDS011;62088;50.240;2.696;2023-06-19T03:56:22;12.90;;;10.10;;
73776;SDS011;62088;50.240;2.696;2023-06-19T03:58:50;12.68;;;9.73;;
73776;SDS011;62088;50.240;2.696;2023-06-19T04:01:17;14.35;;;10.18;;
73776;SDS011;62088;50.240;2.696;2023-06-19T04:03:44;13.40;;;10.48;;
73776;SDS011;62088;50.240;2.696;2023-06-19T04:06:12;10.68;;;7.65;;
73776;SDS011;62088;50.240;2.696;2023-06-19T04:08:39;12.50;;;9.52;;
73776;SDS011;62088;50.240;2.696;2023-06-19T04:11:10;12.27;;;9.73;;
73776;SDS011;62088;50.240;2.696;2023-06-19T04:13:37;14.88;;;11.93;;
73776;SDS011;62088;50.240;2.696;2023-06-19T04:16:04;14.70;;;10.52;;
73776;SDS011;62088;50.240;2.696;2023-06-19T04:18:32;13.27;;;9.98;;
73776;SDS011;62088;50.240;2.696;2023-06-19T04:21:00;11.18;;;8.85;;
73776;SDS011;62088;50.240;2.696;2023-06-19T04:23:27;13.10;;;9.90;;
73776;SDS011;62088;50.240;2.696;2023-06-19T04:25:54;11.77;;;9.73;;
73776;SDS011;62088;50.240;2.696;2023-06-19T04:28:21;14.55;;;11.07;;
73776;SDS011;62088;50.240;2.696;2023-06-19T04:30:48;16.05;;;10.23;;
73776;SDS011;62088;50.240;2.696;2023-06-19T04:33:15;12.73;;;10.07;;
73776;SDS011;62088;50.240;2.696;2023-06-19T04:35:42;15.85;;;10.68;;
73776;SDS011;62088;50.240;2.696;2023-06-19T04:38:09;12.68;;;9.75;;
73776;SDS011;62088;50.240;2.696;2023-06-19T04:40:36;12.45;;;10.25;;
73776;SDS011;62088;50.240;2.696;2023-06-19T04:43:04;13.90;;;9.98;;
73776;SDS011;62088;50.240;2.696;2023-06-19T04:45:32;17.60;;;10.10;;
73776;SDS011;62088;50.240;2.696;2023-06-19T04:47:59;14.77;;;10.05;;
73776;SDS011;62088;50.240;2.696;2023-06-19T04:50:29;16.67;;;10.43;;
73776;SDS011;62088;50.240;2.696;2023-06-19T04:52:56;14.25;;;10.57;;
73776;SDS011;62088;50.240;2.696;2023-06-19T04:55:23;14.90;;;9.68;;
73776;SDS011;62088;50.240;2.696;2023-06-19T04:57:52;19.35;;;11.10;;
73776;SDS011;62088;50.240;2.696;2023-06-19T05:00:19;13.70;;;9.30;;
73776;SDS011;62088;50.240;2.696;2023-06-19T05:02:46;11.13;;;8.88;;
73776;SDS011;62088;50.240;2.696;2023-06-19T05:05:14;11.30;;;8.98;;
73776;SDS011;62088;50.240;2.696;2023-06-19T05:07:41;11.07;;;8.68;;
73776;SDS011;62088;50.240;2.696;2023-06-19T05:10:08;12.40;;;9.05;;
73776;SDS011;62088;50.240;2.696;2023-06-19T05:12:36;16.40;;;10.27;;
73776;SDS011;62088;50.240;2.696;2023-06-19T05:15:04;15.75;;;9.93;;
73776;SDS011;62088;50.240;2.696;2023-06-19T05:17:31;13.25;;;10.57;;
73776;SDS011;62088;50.240;2.696;2023-06-19T05:19:58;14.07;;;9.75;;
73776;SDS011;62088;50.240;2.696;2023-06-19T05:22:25;13.00;;;9.68;;
73776;SDS011;62088;50.240;2.696;2023-06-19T05:24:53;14.20;;;11.13;;
73776;SDS011;62088;50.240;2.696;2023-06-19T05:27:20;11.38;;;9.18;;
73776;SDS011;62088;50.240;2.696;2023-06-19T05:29:47;15.57;;;11.32;;
73776;SDS011;62088;50.240;2.696;2023-06-19T05:32:14;13.18;;;10.23;;
73776;SDS011;62088;50.240;2.696;2023-06-19T05:34:41;11.40;;;9.00;;
73776;SDS011;62088;50.240;2.696;2023-06-19T05:37:08;14.32;;;11.05;;
73776;SDS011;62088;50.240;2.696;2023-06-19T05:39:36;16.67;;;11.85;;
73776;SDS011;62088;50.240;2.696;2023-06-19T05:42:03;17.85;;;11.15;;
73776;SDS011;62088;50.240;2.696;2023-06-19T05:44:30;14.40;;;11.82;;
73776;SDS011;62088;50.240;2.696;2023-06-19T05:46:57;14.68;;;11.57;;
73776;SDS011;62088;50.240;2.696;2023-06-19T05:49:24;15.50;;;12.63;;
73776;SDS011;62088;50.240;2.696;2023-06-19T05:51:51;18.08;;;12.98;;
73776;SDS011;62088;50.240;2.696;2023-06-19T05:54:19;16.73;;;12.88;;
73776;SDS011;62088;50.240;2.696;2023-06-19T05:56:46;14.93;;;10.98;;
73776;SDS011;62088;50.240;2.696;2023-06-19T05:59:14;17.52;;;13.25;;
73776;SDS011;62088;50.240;2.696;2023-06-19T06:01:41;12.25;;;10.27;;
73776;SDS011;62088;50.240;2.696;2023-06-19T06:04:08;16.58;;;13.25;;
73776;SDS011;62088;50.240;2.696;2023-06-19T06:06:35;17.40;;;12.98;;
73776;SDS011;62088;50.240;2.696;2023-06-19T06:09:03;17.80;;;13.27;;
73776;SDS011;62088;50.240;2.696;2023-06-19T06:11:30;13.80;;;11.32;;
73776;SDS011;62088;50.240;2.696;2023-06-19T06:13:57;17.05;;;12.65;;
73776;SDS011;62088;50.240;2.696;2023-06-19T06:16:24;17.23;;;13.05;;
73776;SDS011;62088;50.240;2.696;2023-06-19T06:18:51;19.00;;;12.98;;
73776;SDS011;62088;50.240;2.696;2023-06-19T06:21:18;13.82;;;11.88;;
73776;SDS011;62088;50.240;2.696;2023-06-19T06:23:45;17.67;;;11.95;;
73776;SDS011;62088;50.240;2.696;2023-06-19T06:26:14;16.77;;;10.65;;
73776;SDS011;62088;50.240;2.696;2023-06-19T06:28:41;16.80;;;13.40;;
73776;SDS011;62088;50.240;2.696;2023-06-19T06:31:08;15.23;;;12.18;;
73776;SDS011;62088;50.240;2.696;2023-06-19T06:33:35;12.57;;;10.48;;
73776;SDS011;62088;50.240;2.696;2023-06-19T06:36:02;16.58;;;11.95;;
73776;SDS011;62088;50.240;2.696;2023-06-19T06:38:31;14.52;;;12.13;;
73776;SDS011;62088;50.240;2.696;2023-06-19T06:40:58;18.38;;;12.57;;
73776;SDS011;62088;50.240;2.696;2023-06-19T06:43:25;19.58;;;12.85;;
73776;SDS011;62088;50.240;2.696;2023-06-19T06:45:53;17.10;;;13.18;;
73776;SDS011;62088;50.240;2.696;2023-06-19T06:48:20;15.50;;;12.55;;
73776;SDS011;62088;50.240;2.696;2023-06-19T06:50:47;15.38;;;11.95;;
73776;SDS011;62088;50.240;2.696;2023-06-19T06:53:14;18.40;;;12.75;;
73776;SDS011;62088;50.240;2.696;2023-06-19T06:55:41;15.30;;;13.10;;
73776;SDS011;62088;50.240;2.696;2023-06-19T06:58:08;15.10;;;11.55;;
73776;SDS011;62088;50.240;2.696;2023-06-19T07:00:35;15.65;;;12.80;;
73776;SDS011;62088;50.240;2.696;2023-06-19T07:03:02;15.48;;;11.85;;
73776;SDS011;62088;50.240;2.696;2023-06-19T07:05:29;16.90;;;13.27;;
73776;SDS011;62088;50.240;2.696;2023-06-19T07:07:56;14.63;;;12.60;;
73776;SDS011;62088;50.240;2.696;2023-06-19T07:10:23;15.93;;;13.30;;
73776;SDS011;62088;50.240;2.696;2023-06-19T07:12:52;15.27;;;13.43;;
73776;SDS011;62088;50.240;2.696;2023-06-19T07:15:19;17.60;;;13.18;;
73776;SDS011;62088;50.240;2.696;2023-06-19T07:17:46;16.00;;;12.57;;
73776;SDS011;62088;50.240;2.696;2023-06-19T07:20:14;18.80;;;13.88;;
73776;SDS011;62088;50.240;2.696;2023-06-19T07:22:42;15.45;;;12.75;;
73776;SDS011;62088;50.240;2.696;2023-06-19T07:25:10;17.33;;;13.35;;
73776;SDS011;62088;50.240;2.696;2023-06-19T07:27:39;15.18;;;11.95;;
73776;SDS011;62088;50.240;2.696;2023-06-19T07:30:07;15.70;;;12.82;;
73776;SDS011;62088;50.240;2.696;2023-06-19T07:32:34;20.92;;;14.10;;
73776;SDS011;62088;50.240;2.696;2023-06-19T07:35:01;15.57;;;13.45;;
73776;SDS011;62088;50.240;2.696;2023-06-19T07:37:29;16.33;;;13.63;;
73776;SDS011;62088;50.240;2.696;2023-06-19T07:39:56;16.42;;;13.00;;
73776;SDS011;62088;50.240;2.696;2023-06-19T07:42:23;18.95;;;15.00;;
73776;SDS011;62088;50.240;2.696;2023-06-19T07:44:50;19.02;;;14.50;;
73776;SDS011;62088;50.240;2.696;2023-06-19T07:47:17;18.55;;;13.98;;
73776;SDS011;62088;50.240;2.696;2023-06-19T07:49:45;22.35;;;14.93;;
73776;SDS011;62088;50.240;2.696;2023-06-19T07:52:12;19.05;;;13.95;;
73776;SDS011;62088;50.240;2.696;2023-06-19T07:54:53;16.23;;;12.98;;
73776;SDS011;62088;50.240;2.696;2023-06-19T07:57:22;19.23;;;13.82;;
73776;SDS011;62088;50.240;2.696;2023-06-19T07:59:50;18.35;;;14.85;;
73776;SDS011;62088;50.240;2.696;2023-06-19T08:02:18;17.10;;;12.90;;
73776;SDS011;62088;50.240;2.696;2023-06-19T08:04:45;16.63;;;13.90;;
73776;SDS011;62088;50.240;2.696;2023-06-19T08:07:13;20.50;;;14.48;;
73776;SDS011;62088;50.240;2.696;2023-06-19T08:09:40;17.15;;;14.02;;
73776;SDS011;62088;50.240;2.696;2023-06-19T08:12:07;17.35;;;13.70;;
73776;SDS011;62088;50.240;2.696;2023-06-19T08:14:34;20.67;;;14.57;;
73776;SDS011;62088;50.240;2.696;2023-06-19T08:17:01;20.70;;;14.73;;
73776;SDS011;62088;50.240;2.696;2023-06-19T08:19:29;19.70;;;13.80;;
73776;SDS011;62088;50.240;2.696;2023-06-19T08:21:56;16.02;;;13.15;;
73776;SDS011;62088;50.240;2.696;2023-06-19T08:24:23;16.25;;;12.75;;
73776;SDS011;62088;50.240;2.696;2023-06-19T08:26:51;16.38;;;13.27;;
73776;SDS011;62088;50.240;2.696;2023-06-19T08:29:18;18.48;;;13.00;;
73776;SDS011;62088;50.240;2.696;2023-06-19T08:31:45;18.83;;;12.25;;
73776;SDS011;62088;50.240;2.696;2023-06-19T08:34:12;15.82;;;12.30;;
73776;SDS011;62088;50.240;2.696;2023-06-19T08:36:40;16.92;;;12.35;;
73776;SDS011;62088;50.240;2.696;2023-06-19T08:39:07;16.92;;;11.93;;
73776;SDS011;62088;50.240;2.696;2023-06-19T08:41:38;15.60;;;12.18;;
73776;SDS011;62088;50.240;2.696;2023-06-19T08:44:05;18.60;;;12.82;;
73776;SDS011;62088;50.240;2.696;2023-06-19T08:46:32;18.27;;;12.45;;
73776;SDS011;62088;50.240;2.696;2023-06-19T08:49:01;15.65;;;11.68;;
73776;SDS011;62088;50.240;2.696;2023-06-19T08:51:28;16.52;;;11.35;;
73776;SDS011;62088;50.240;2.696;2023-06-19T08:54:02;15.20;;;10.25;;
73776;SDS011;62088;50.240;2.696;2023-06-19T08:56:31;18.75;;;12.45;;
73776;SDS011;62088;50.240;2.696;2023-06-19T08:59:14;17.25;;;11.75;;
73776;SDS011;62088;50.240;2.696;2023-06-19T09:01:52;17.45;;;11.25;;
73776;SDS011;62088;50.240;2.696;2023-06-19T09:04:30;14.43;;;10.88;;
73776;SDS011;62088;50.240;2.696;2023-06-19T09:07:02;14.32;;;10.77;;
73776;SDS011;62088;50.240;2.696;2023-06-19T09:09:45;14.23;;;11.07;;
73776;SDS011;62088;50.240;2.696;2023-06-19T09:12:13;13.25;;;9.77;;
73776;SDS011;62088;50.240;2.696;2023-06-19T09:14:45;13.57;;;10.45;;
73776;SDS011;62088;50.240;2.696;2023-06-19T09:17:19;11.35;;;9.48;;
73776;SDS011;62088;50.240;2.696;2023-06-19T09:19:50;14.50;;;10.52;;
73776;SDS011;62088;50.240;2.696;2023-06-19T09:22:20;12.93;;;9.68;;
73776;SDS011;62088;50.240;2.696;2023-06-19T09:24:49;15.13;;;9.90;;
73776;SDS011;62088;50.240;2.696;2023-06-19T09:27:17;10.70;;;9.20;;
73776;SDS011;62088;50.240;2.696;2023-06-19T09:29:46;11.82;;;9.55;;
73776;SDS011;62088;50.240;2.696;2023-06-19T09:32:17;11.55;;;9.25;;
73776;SDS011;62088;50.240;2.696;2023-06-19T09:34:48;13.18;;;9.45;;
73776;SDS011;62088;50.240;2.696;2023-06-19T09:37:28;12.30;;;8.65;;
73776;SDS011;62088;50.240;2.696;2023-06-19T09:39:57;18.13;;;9.25;;
73776;SDS011;62088;50.240;2.696;2023-06-19T09:42:30;10.70;;;8.82;;
73776;SDS011;62088;50.240;2.696;2023-06-19T09:45:02;9.77;;;8.23;;
73776;SDS011;62088;50.240;2.696;2023-06-19T09:50:16;12.18;;;8.80;;
73776;SDS011;62088;50.240;2.696;2023-06-19T09:52:47;10.95;;;7.82;;
73776;SDS011;62088;50.240;2.696;2023-06-19T09:55:17;12.40;;;9.55;;
73776;SDS011;62088;50.240;2.696;2023-06-19T09:57:46;10.93;;;8.05;;
73776;SDS011;62088;50.240;2.696;2023-06-19T10:00:15;8.98;;;7.35;;
73776;SDS011;62088;50.240;2.696;2023-06-19T10:02:48;9.32;;;7.93;;
73776;SDS011;62088;50.240;2.696;2023-06-19T10:05:16;11.60;;;8.10;;
73776;SDS011;62088;50.240;2.696;2023-06-19T10:07:45;10.13;;;7.75;;
73776;SDS011;62088;50.240;2.696;2023-06-19T10:10:26;9.23;;;6.30;;
73776;SDS011;62088;50.240;2.696;2023-06-19T10:12:59;8.52;;;6.43;;
73776;SDS011;62088;50.240;2.696;2023-06-19T10:15:40;10.07;;;6.38;;
73776;SDS011;62088;50.240;2.696;2023-06-19T10:18:12;8.43;;;6.90;;
73776;SDS011;62088;50.240;2.696;2023-06-19T10:23:16;9.02;;;6.63;;
73776;SDS011;62088;50.240;2.696;2023-06-19T10:25:47;9.85;;;6.47;;
73776;SDS011;62088;50.240;2.696;2023-06-19T10:28:28;8.07;;;6.10;;
73776;SDS011;62088;50.240;2.696;2023-06-19T10:33:29;7.45;;;5.43;;
73776;SDS011;62088;50.240;2.696;2023-06-19T10:35:59;9.52;;;5.65;;
73776;SDS011;62088;50.240;2.696;2023-06-19T10:38:27;9.00;;;6.00;;
73776;SDS011;62088;50.240;2.696;2023-06-19T10:40:55;8.05;;;5.22;;
73776;SDS011;62088;50.240;2.696;2023-06-19T10:43:23;8.65;;;5.85;;
73776;SDS011;62088;50.240;2.696;2023-06-19T10:45:54;8.15;;;5.63;;
73776;SDS011;62088;50.240;2.696;2023-06-19T10:48:25;7.97;;;4.97;;
73776;SDS011;62088;50.240;2.696;2023-06-19T10:50:52;8.90;;;5.07;;
73776;SDS011;62088;50.240;2.696;2023-06-19T10:53:32;7.32;;;5.00;;
73776;SDS011;62088;50.240;2.696;2023-06-19T10:56:00;7.05;;;4.68;;
73776;SDS011;62088;50.240;2.696;2023-06-19T10:58:28;7.47;;;4.97;;
73776;SDS011;62088;50.240;2.696;2023-06-19T11:00:56;8.13;;;5.10;;
73776;SDS011;62088;50.240;2.696;2023-06-19T11:03:23;7.60;;;4.70;;
73776;SDS011;62088;50.240;2.696;2023-06-19T11:05:51;10.95;;;5.25;;
73776;SDS011;62088;50.240;2.696;2023-06-19T11:08:18;11.13;;;5.13;;
73776;SDS011;62088;50.240;2.696;2023-06-19T11:10:49;9.40;;;5.22;;
73776;SDS011;62088;50.240;2.696;2023-06-19T11:13:18;10.07;;;5.03;;
73776;SDS011;62088;50.240;2.696;2023-06-19T11:15:49;7.25;;;4.70;;
73776;SDS011;62088;50.240;2.696;2023-06-19T11:18:17;8.77;;;4.82;;
73776;SDS011;62088;50.240;2.696;2023-06-19T11:20:46;7.65;;;4.60;;
73776;SDS011;62088;50.240;2.696;2023-06-19T11:23:25;6.07;;;4.13;;
73776;SDS011;62088;50.240;2.696;2023-06-19T11:25:53;6.40;;;4.38;;
73776;SDS011;62088;50.240;2.696;2023-06-19T11:28:26;7.03;;;4.25;;
73776;SDS011;62088;50.240;2.696;2023-06-19T11:30:59;5.80;;;4.30;;
73776;SDS011;62088;50.240;2.696;2023-06-19T11:33:30;7.68;;;4.25;;
73776;SDS011;62088;50.240;2.696;2023-06-19T11:36:00;6.72;;;4.22;;
73776;SDS011;62088;50.240;2.696;2023-06-19T11:38:29;6.63;;;3.72;;
73776;SDS011;62088;50.240;2.696;2023-06-19T11:40:56;7.00;;;4.13;;
73776;SDS011;62088;50.240;2.696;2023-06-19T11:45:53;5.03;;;3.55;;
73776;SDS011;62088;50.240;2.696;2023-06-19T11:48:26;6.20;;;4.22;;
73776;SDS011;62088;50.240;2.696;2023-06-19T11:50:53;6.35;;;4.00;;
73776;SDS011;62088;50.240;2.696;2023-06-19T11:53:21;6.35;;;4.00;;
73776;SDS011;62088;50.240;2.696;2023-06-19T11:55:50;5.78;;;4.22;;
73776;SDS011;62088;50.240;2.696;2023-06-19T11:58:17;7.63;;;3.80;;
73776;SDS011;62088;50.240;2.696;2023-06-19T12:00:47;6.28;;;4.20;;
73776;SDS011;62088;50.240;2.696;2023-06-19T12:03:15;10.43;;;4.55;;
73776;SDS011;62088;50.240;2.696;2023-06-19T12:05:43;8.07;;;4.00;;
73776;SDS011;62088;50.240;2.696;2023-06-19T12:08:10;10.07;;;4.18;;
73776;SDS011;62088;50.240;2.696;2023-06-19T12:10:37;6.07;;;3.85;;
73776;SDS011;62088;50.240;2.696;2023-06-19T12:13:04;6.50;;;3.55;;
73776;SDS011;62088;50.240;2.696;2023-06-19T12:15:31;6.82;;;3.70;;
73776;SDS011;62088;50.240;2.696;2023-06-19T12:18:02;5.22;;;3.05;;
73776;SDS011;62088;50.240;2.696;2023-06-19T12:20:30;10.82;;;4.15;;
73776;SDS011;62088;50.240;2.696;2023-06-19T12:22:57;5.35;;;3.47;;
73776;SDS011;62088;50.240;2.696;2023-06-19T12:25:25;5.45;;;3.47;;
73776;SDS011;62088;50.240;2.696;2023-06-19T12:27:52;9.82;;;3.63;;
73776;SDS011;62088;50.240;2.696;2023-06-19T12:30:21;6.30;;;3.22;;
73776;SDS011;62088;50.240;2.696;2023-06-19T12:32:49;5.18;;;3.30;;
73776;SDS011;62088;50.240;2.696;2023-06-19T12:35:16;5.93;;;3.33;;
73776;SDS011;62088;50.240;2.696;2023-06-19T12:37:45;6.05;;;3.72;;
73776;SDS011;62088;50.240;2.696;2023-06-19T12:40:12;6.80;;;3.58;;
73776;SDS011;62088;50.240;2.696;2023-06-19T12:42:39;5.00;;;2.75;;
73776;SDS011;62088;50.240;2.696;2023-06-19T12:45:06;5.07;;;3.45;;
73776;SDS011;62088;50.240;2.696;2023-06-19T12:47:34;5.13;;;3.08;;
73776;SDS011;62088;50.240;2.696;2023-06-19T12:50:01;5.18;;;3.20;;
73776;SDS011;62088;50.240;2.696;2023-06-19T12:52:29;5.72;;;3.08;;
73776;SDS011;62088;50.240;2.696;2023-06-19T12:54:57;5.47;;;3.25;;
73776;SDS011;62088;50.240;2.696;2023-06-19T12:57:26;7.20;;;3.28;;
73776;SDS011;62088;50.240;2.696;2023-06-19T12:59:53;5.40;;;3.08;;
73776;SDS011;62088;50.240;2.696;2023-06-19T13:02:20;7.07;;;3.10;;
73776;SDS011;62088;50.240;2.696;2023-06-19T13:04:48;6.10;;;3.80;;
73776;SDS011;62088;50.240;2.696;2023-06-19T13:07:15;4.95;;;2.75;;
73776;SDS011;62088;50.240;2.696;2023-06-19T13:09:42;5.30;;;3.10;;
73776;SDS011;62088;50.240;2.696;2023-06-19T13:12:09;5.55;;;3.03;;
73776;SDS011;62088;50.240;2.696;2023-06-19T13:14:37;5.75;;;2.70;;
73776;SDS011;62088;50.240;2.696;2023-06-19T13:17:04;5.00;;;2.92;;
73776;SDS011;62088;50.240;2.696;2023-06-19T13:19:32;5.05;;;2.85;;
73776;SDS011;62088;50.240;2.696;2023-06-19T13:21:59;12.93;;;3.67;;
73776;SDS011;62088;50.240;2.696;2023-06-19T13:24:26;7.43;;;3.10;;
73776;SDS011;62088;50.240;2.696;2023-06-19T13:26:56;5.57;;;3.03;;
73776;SDS011;62088;50.240;2.696;2023-06-19T13:29:23;13.35;;;3.63;;
73776;SDS011;62088;50.240;2.696;2023-06-19T13:31:50;9.85;;;3.10;;
73776;SDS011;62088;50.240;2.696;2023-06-19T13:34:17;13.75;;;3.78;;
73776;SDS011;62088;50.240;2.696;2023-06-19T13:36:45;22.08;;;4.78;;
73776;SDS011;62088;50.240;2.696;2023-06-19T13:39:13;16.00;;;5.25;;
73776;SDS011;62088;50.240;2.696;2023-06-19T13:41:41;6.72;;;3.50;;
73776;SDS011;62088;50.240;2.696;2023-06-19T13:44:08;7.45;;;3.50;;
73776;SDS011;62088;50.240;2.696;2023-06-19T13:46:35;6.07;;;2.80;;
73776;SDS011;62088;50.240;2.696;2023-06-19T13:49:03;5.00;;;2.80;;
73776;SDS011;62088;50.240;2.696;2023-06-19T13:51:31;4.47;;;2.63;;
73776;SDS011;62088;50.240;2.696;2023-06-19T13:53:59;6.43;;;2.83;;
73776;SDS011;62088;50.240;2.696;2023-06-19T13:56:26;5.05;;;2.83;;
73776;SDS011;62088;50.240;2.696;2023-06-19T13:58:53;6.07;;;2.70;;
73776;SDS011;62088;50.240;2.696;2023-06-19T14:01:20;5.97;;;3.00;;
73776;SDS011;62088;50.240;2.696;2023-06-19T14:03:47;4.28;;;2.63;;
73776;SDS011;62088;50.240;2.696;2023-06-19T14:06:14;5.10;;;2.78;;
73776;SDS011;62088;50.240;2.696;2023-06-19T14:08:42;5.78;;;2.83;;
73776;SDS011;62088;50.240;2.696;2023-06-19T14:11:09;4.80;;;3.08;;
73776;SDS011;62088;50.240;2.696;2023-06-19T14:13:36;4.82;;;2.80;;
73776;SDS011;62088;50.240;2.696;2023-06-19T14:16:03;5.82;;;2.97;;
73776;SDS011;62088;50.240;2.696;2023-06-19T14:18:30;4.95;;;3.05;;
73776;SDS011;62088;50.240;2.696;2023-06-19T14:20:57;5.75;;;3.17;;
73776;SDS011;62088;50.240;2.696;2023-06-19T14:23:24;4.82;;;2.97;;
73776;SDS011;62088;50.240;2.696;2023-06-19T14:25:51;5.45;;;2.88;;
73776;SDS011;62088;50.240;2.696;2023-06-19T14:28:18;10.05;;;3.00;;
73776;SDS011;62088;50.240;2.696;2023-06-19T14:30:45;4.75;;;2.90;;
73776;SDS011;62088;50.240;2.696;2023-06-19T14:33:12;5.90;;;3.28;;
73776;SDS011;62088;50.240;2.696;2023-06-19T14:35:44;6.93;;;3.00;;
73776;SDS011;62088;50.240;2.696;2023-06-19T14:38:13;5.47;;;2.58;;
73776;SDS011;62088;50.240;2.696;2023-06-19T14:40:43;8.07;;;3.50;;
73776;SDS011;62088;50.240;2.696;2023-06-19T14:43:10;5.72;;;3.00;;
73776;SDS011;62088;50.240;2.696;2023-06-19T14:45:37;7.13;;;2.85;;
73776;SDS011;62088;50.240;2.696;2023-06-19T14:48:06;5.00;;;3.00;;
73776;SDS011;62088;50.240;2.696;2023-06-19T14:50:33;6.32;;;3.13;;